createdAt,value
2022-08-23T00:02:47.582Z,16.87
2022-08-23T00:06:52.116Z,16.88
2022-08-23T00:10:56.245Z,16.70
2022-08-23T00:14:58.765Z,16.81
2022-08-23T00:19:02.759Z,16.71
2022-08-23T00:23:05.028Z,16.71
2022-08-23T00:27:18.447Z,16.74
2022-08-23T00:31:20.797Z,16.61
2022-08-23T00:35:27.118Z,16.68
2022-08-23T00:39:31.215Z,16.71
2022-08-23T00:43:59.088Z,16.63
2022-08-23T00:48:03.037Z,16.57
2022-08-23T00:52:24.370Z,16.59
2022-08-23T00:56:33.674Z,16.61
2022-08-23T01:00:36.351Z,16.55
2022-08-23T01:04:45.592Z,16.49
2022-08-23T01:09:12.284Z,16.58
2022-08-23T01:13:23.314Z,16.46
2022-08-23T01:17:50.350Z,16.43
2022-08-23T01:22:00.626Z,16.37
2022-08-23T01:26:05.627Z,16.33
2022-08-23T01:30:18.171Z,16.35
2022-08-23T01:34:30.484Z,16.30
2022-08-23T01:38:38.805Z,16.33
2022-08-23T01:42:41.906Z,16.31
2022-08-23T01:46:47.258Z,16.17
2022-08-23T01:50:53.621Z,16.15
2022-08-23T01:55:00.212Z,16.12
2022-08-23T01:59:05.229Z,16.09
2022-08-23T02:03:18.452Z,16.08
2022-08-23T02:07:27.288Z,16.04
2022-08-23T02:11:43.561Z,16.00
2022-08-23T02:15:51.367Z,15.99
2022-08-23T02:19:55.432Z,15.98
2022-08-23T02:24:11.732Z,15.89
2022-08-23T02:28:17.165Z,15.91
2022-08-23T02:32:20.164Z,15.90
2022-08-23T02:36:23.346Z,15.88
2022-08-23T02:40:26.210Z,15.80
2022-08-23T02:44:31.986Z,15.77
2022-08-23T02:48:35.064Z,15.77
2022-08-23T02:52:41.854Z,15.62
2022-08-23T02:56:49.905Z,15.57
2022-08-23T03:00:57.522Z,15.54
2022-08-23T03:05:04.764Z,15.59
2022-08-23T03:09:10.433Z,15.54
2022-08-23T03:13:17.402Z,15.49
2022-08-23T03:21:47.673Z,15.38
2022-08-23T03:26:03.504Z,15.35
2022-08-23T03:30:19.128Z,15.38
2022-08-23T03:34:29.702Z,15.37
2022-08-23T03:38:36.970Z,15.34
2022-08-23T03:42:42.645Z,15.11
2022-08-23T03:46:50.582Z,15.02
2022-08-23T03:50:54.624Z,15.03
2022-08-23T03:55:06.551Z,15.09
2022-08-23T03:59:13.850Z,15.13
2022-08-23T04:03:21.787Z,15.09
2022-08-23T04:07:41.249Z,15.04
2022-08-23T04:11:47.807Z,15.03
2022-08-23T04:15:55.170Z,15.05
2022-08-23T04:20:03.574Z,15.04
2022-08-23T04:24:14.288Z,15.07
2022-08-23T04:28:31.930Z,15.06
2022-08-23T04:32:44.395Z,15.00
2022-08-23T04:36:55.423Z,14.43
2022-08-23T04:45:46.817Z,14.59
2022-08-23T04:50:04.274Z,14.62
2022-08-23T04:54:18.897Z,14.46
2022-08-23T04:58:58.227Z,14.71
2022-08-23T05:03:07.416Z,14.82
2022-08-23T05:07:19.671Z,15.00
2022-08-23T05:11:38.480Z,15.14
2022-08-23T05:16:15.386Z,15.27
2022-08-23T05:20:26.499Z,15.36
2022-08-23T05:24:29.192Z,15.13
2022-08-23T05:28:34.688Z,15.22
2022-08-23T05:32:38.770Z,15.53
2022-08-23T05:36:48.905Z,15.73
2022-08-23T05:41:02.428Z,16.00
2022-08-23T05:45:12.189Z,16.20
2022-08-23T05:49:19.531Z,16.40
2022-08-23T05:53:24.487Z,16.60
2022-08-23T05:57:27.191Z,16.73
2022-08-23T06:01:30.901Z,16.93
2022-08-23T06:05:40.884Z,17.08
2022-08-23T06:09:44.626Z,17.31
2022-08-23T06:13:50.897Z,17.53
2022-08-23T06:17:53.088Z,17.68
2022-08-23T06:21:56.401Z,17.91
2022-08-23T06:26:14.974Z,18.09
2022-08-23T06:30:18.870Z,18.23
2022-08-23T06:34:33.733Z,18.42
2022-08-23T06:38:43.081Z,18.58
2022-08-23T06:47:34.744Z,18.84
2022-08-23T06:51:48.531Z,18.99
2022-08-23T06:55:54.301Z,19.12
2022-08-23T07:00:01.875Z,19.33
2022-08-23T07:04:31.367Z,19.59
2022-08-23T07:08:51.838Z,19.84
2022-08-23T07:12:57.484Z,20.10
2022-08-23T07:17:06.599Z,20.27
2022-08-23T07:21:09.833Z,20.47
2022-08-23T07:25:30.115Z,20.70
2022-08-23T07:29:39.932Z,20.95
2022-08-23T07:33:46.592Z,21.17
2022-08-23T07:37:57.596Z,21.34
2022-08-23T07:42:22.884Z,21.52
2022-08-23T07:46:29.934Z,21.67
2022-08-23T07:50:32.173Z,21.83
2022-08-23T07:54:37.059Z,22.06
2022-08-23T07:59:01.702Z,22.39
2022-08-23T08:03:14.939Z,22.54
2022-08-23T08:07:37.200Z,22.74
2022-08-23T08:11:42.039Z,23.04
2022-08-23T08:15:45.082Z,23.26
2022-08-23T08:20:00.402Z,23.39
2022-08-23T08:24:14.211Z,23.44
2022-08-23T08:28:20.711Z,23.55
2022-08-23T08:32:23.482Z,23.63
2022-08-23T08:36:35.878Z,23.71
2022-08-23T08:40:40.975Z,23.86
2022-08-23T08:44:51.363Z,23.95
2022-08-23T08:49:01.982Z,24.14
2022-08-23T08:53:25.435Z,24.38
2022-08-23T08:57:48.006Z,24.61
2022-08-23T09:01:53.103Z,24.69
2022-08-23T09:06:13.791Z,24.81
2022-08-23T09:10:46.396Z,24.92
2022-08-23T09:15:09.980Z,25.07
2022-08-23T09:19:12.547Z,25.13
2022-08-23T09:23:22.708Z,25.24
2022-08-23T09:27:28.006Z,25.39
2022-08-23T09:31:37.303Z,25.66
2022-08-23T09:35:39.544Z,25.71
2022-08-23T09:39:53.909Z,25.76
2022-08-23T09:44:02.981Z,26.01
2022-08-23T09:48:07.373Z,26.04
2022-08-23T09:52:22.276Z,26.33
2022-08-23T09:56:39.499Z,26.44
2022-08-23T10:00:44.649Z,26.82
2022-08-23T10:05:06.866Z,26.82
2022-08-23T10:09:32.958Z,26.76
2022-08-23T10:13:41.899Z,26.94
2022-08-23T10:18:16.551Z,26.93
2022-08-23T10:22:24.541Z,27.05
2022-08-23T10:27:34.722Z,27.21
2022-08-23T10:31:43.035Z,27.32
2022-08-23T10:36:03.762Z,27.23
2022-08-23T10:40:29.067Z,27.37
2022-08-23T10:44:33.396Z,27.39
2022-08-23T10:48:42.297Z,27.63
2022-08-23T10:52:55.643Z,27.91
2022-08-23T10:56:58.815Z,28.04
2022-08-23T11:01:02.980Z,28.52
2022-08-23T11:05:27.875Z,28.86
2022-08-23T11:09:58.478Z,28.55
2022-08-23T11:14:04.187Z,28.38
2022-08-23T11:18:09.211Z,28.26
2022-08-23T11:22:22.306Z,28.46
2022-08-23T11:26:27.908Z,28.68
2022-08-23T11:30:33.219Z,28.91
2022-08-23T11:35:05.611Z,29.15
2022-08-23T11:39:13.810Z,28.95
2022-08-23T11:43:43.541Z,28.57
2022-08-23T11:47:50.389Z,28.47
2022-08-23T11:52:20.606Z,28.20
2022-08-23T11:57:07.630Z,27.91
2022-08-23T12:01:12.550Z,27.78
2022-08-23T12:05:44.730Z,28.02
2022-08-23T12:09:52.361Z,28.47
2022-08-23T12:13:54.467Z,28.66
2022-08-23T12:18:10.093Z,28.99
2022-08-23T12:22:22.146Z,29.51
2022-08-23T12:26:54.398Z,29.49
2022-08-23T12:31:47.137Z,29.71
2022-08-23T12:35:49.256Z,29.62
2022-08-23T12:39:56.127Z,29.49
2022-08-23T12:44:08.407Z,29.48
2022-08-23T12:48:12.988Z,29.50
2022-08-23T12:52:15.241Z,29.53
2022-08-23T12:56:31.881Z,29.51
2022-08-23T13:00:39.716Z,29.63
2022-08-23T13:04:43.291Z,29.76
2022-08-23T13:08:49.988Z,29.82
2022-08-23T13:12:52.482Z,29.90
2022-08-23T13:16:56.594Z,30.10
2022-08-23T13:21:18.764Z,30.05
2022-08-23T13:25:41.586Z,30.43
2022-08-23T13:30:03.739Z,30.90
2022-08-23T13:34:06.205Z,31.27
2022-08-23T13:38:08.290Z,31.36
2022-08-23T13:42:11.749Z,31.10
2022-08-23T13:46:22.334Z,30.70
2022-08-23T13:50:31.983Z,30.27
2022-08-23T13:54:35.731Z,30.17
2022-08-23T13:58:38.563Z,29.87
2022-08-23T14:02:40.855Z,29.80
2022-08-23T14:06:48.806Z,30.16
2022-08-23T14:10:52.995Z,30.33
2022-08-23T14:15:01.174Z,30.50
2022-08-23T14:23:27.029Z,30.55
2022-08-23T14:27:29.169Z,30.64
2022-08-23T14:31:31.765Z,30.66
2022-08-23T14:35:33.835Z,30.56
2022-08-23T14:39:35.917Z,30.14
2022-08-23T14:43:38.347Z,30.04
2022-08-23T14:47:41.455Z,29.91
2022-08-23T14:51:46.394Z,29.44
2022-08-23T14:56:12.313Z,29.26
2022-08-23T15:00:16.286Z,29.34
2022-08-23T15:04:22.891Z,29.22
2022-08-23T15:08:25.126Z,29.33
2022-08-23T15:16:50.346Z,29.36
2022-08-23T15:20:52.605Z,29.43
2022-08-23T15:24:55.726Z,29.64
2022-08-23T15:28:58.851Z,29.86
2022-08-23T15:33:02.076Z,30.01
2022-08-23T15:37:05.214Z,30.12
2022-08-23T15:41:07.423Z,30.18
2022-08-23T15:45:11.383Z,30.27
2022-08-23T15:49:17.174Z,31.08
2022-08-23T15:53:22.207Z,32.73
2022-08-23T15:57:28.172Z,34.00
2022-08-23T16:01:33.734Z,34.57
2022-08-23T16:05:37.594Z,34.96
2022-08-23T16:09:41.053Z,35.79
2022-08-23T16:13:45.103Z,35.89
2022-08-23T16:17:47.358Z,35.60
2022-08-23T16:21:51.787Z,35.58
2022-08-23T16:25:56.824Z,35.62
2022-08-23T16:30:05.140Z,35.55
2022-08-23T16:34:18.142Z,35.62
2022-08-23T16:38:20.209Z,35.66
2022-08-23T16:42:22.423Z,34.57
2022-08-23T16:46:24.810Z,33.67
2022-08-23T16:50:27.686Z,33.80
2022-08-23T16:54:29.915Z,34.18
2022-08-23T16:58:32.427Z,33.76
2022-08-23T17:02:36.195Z,33.59
2022-08-23T17:06:38.911Z,32.88
2022-08-23T17:10:41.430Z,32.05
2022-08-23T17:14:45.429Z,31.58
2022-08-23T17:18:48.084Z,31.10
2022-08-23T17:22:57.104Z,30.97
2022-08-23T17:27:09.044Z,30.38
2022-08-23T17:31:21.704Z,30.17
2022-08-23T17:35:42.211Z,30.23
2022-08-23T17:39:48.608Z,29.86
2022-08-23T17:43:51.299Z,29.37
2022-08-23T17:47:54.578Z,28.67
2022-08-23T17:51:56.716Z,28.12
2022-08-23T17:55:59.240Z,27.25
2022-08-23T18:00:01.560Z,26.61
2022-08-23T18:04:07.633Z,26.02
2022-08-23T18:08:09.906Z,25.67
2022-08-23T18:12:12.192Z,25.37
2022-08-23T18:16:15.046Z,25.08
2022-08-23T18:20:17.212Z,24.81
2022-08-23T18:24:19.794Z,24.60
2022-08-23T18:28:21.857Z,24.49
2022-08-23T18:32:23.948Z,24.36
2022-08-23T18:36:27.882Z,24.25
2022-08-23T18:40:30.869Z,24.12
2022-08-23T18:44:33.530Z,23.91
2022-08-23T18:48:36.795Z,23.73
2022-08-23T18:52:39.305Z,23.61
2022-08-23T18:56:41.914Z,23.46
2022-08-23T19:00:46.989Z,23.27
2022-08-23T19:04:56.173Z,23.20
2022-08-23T19:09:01.097Z,23.10
2022-08-23T19:13:05.426Z,23.05
2022-08-23T19:17:10.985Z,22.97
2022-08-23T19:21:16.354Z,22.92
2022-08-23T19:25:18.688Z,22.84
2022-08-23T19:29:21.812Z,22.79
2022-08-23T19:33:23.911Z,22.71
2022-08-23T19:37:34.769Z,22.64
2022-08-23T19:41:51.740Z,22.59
2022-08-23T19:45:53.943Z,22.55
2022-08-23T19:49:56.679Z,22.52
2022-08-23T19:54:06.937Z,22.49
2022-08-23T19:58:14.283Z,22.38
2022-08-23T20:02:16.973Z,22.30
2022-08-23T20:06:19.384Z,22.28
2022-08-23T20:10:22.056Z,22.18
2022-08-23T20:14:26.164Z,22.07
2022-08-23T20:18:28.614Z,21.97
2022-08-23T20:22:49.358Z,21.92
2022-08-23T20:26:52.373Z,21.84
2022-08-23T20:30:54.550Z,21.62
2022-08-23T20:34:56.711Z,21.57
2022-08-23T20:39:02.009Z,21.46
2022-08-23T20:43:05.595Z,21.30
2022-08-23T20:47:08.001Z,21.32
2022-08-23T20:51:10.428Z,21.35
2022-08-23T20:55:13.826Z,21.28
2022-08-23T20:59:16.082Z,21.09
2022-08-23T21:03:18.711Z,21.04
2022-08-23T21:07:21.225Z,21.06
2022-08-23T21:11:44.626Z,20.96
2022-08-23T21:15:56.686Z,20.64
2022-08-23T21:20:13.799Z,20.59
2022-08-23T21:24:36.270Z,20.50
2022-08-23T21:28:52.793Z,20.39
2022-08-23T21:32:55.105Z,20.23
2022-08-23T21:36:58.228Z,20.09
2022-08-23T21:41:04.875Z,20.05
2022-08-23T21:45:09.112Z,19.96
2022-08-23T21:49:12.698Z,19.92
2022-08-23T21:57:34.026Z,19.69
2022-08-23T22:01:42.034Z,19.78
2022-08-23T22:05:48.795Z,19.77
2022-08-23T22:09:52.839Z,19.82
2022-08-23T22:13:55.774Z,19.73
2022-08-23T22:18:00.724Z,19.72
2022-08-23T22:22:04.289Z,19.72
2022-08-23T22:26:07.345Z,19.49
2022-08-23T22:30:11.242Z,19.33
2022-08-23T22:34:13.637Z,19.31
2022-08-23T22:38:17.516Z,19.16
2022-08-23T22:42:19.916Z,19.19
2022-08-23T22:46:23.059Z,19.18
2022-08-23T22:50:25.673Z,19.17
2022-08-23T22:54:27.810Z,19.11
2022-08-23T22:58:29.933Z,19.07
2022-08-23T23:02:32.018Z,19.05
2022-08-23T23:06:34.320Z,18.93
2022-08-23T23:10:40.843Z,18.71
2022-08-23T23:14:46.701Z,18.65
2022-08-23T23:19:13.558Z,18.66
2022-08-23T23:23:22.199Z,18.67
2022-08-23T23:27:24.330Z,18.61
2022-08-23T23:31:26.516Z,18.59
2022-08-23T23:35:29.872Z,18.40
2022-08-23T23:40:01.756Z,18.59
2022-08-23T23:44:07.693Z,18.58
2022-08-23T23:48:10.084Z,18.55
2022-08-23T23:52:12.243Z,18.52
2022-08-23T23:56:16.409Z,18.49
